AEU453 LFBD-EGCC
Flight info
| Callsign | AEU453 |
|---|---|
| Flight time | 1h 29m |
| Altitude | 38000 |
| Route | CNA DCT TUPAR DCT RALIX DCT IBSUS DCT AKIKI DCT GARMI UN867 AVANT UM184 HEMEL T420 ELVOS |
| Aircraft | B737/M-SDE2E3FGHIRWXY/LB1 |
Departure
| Time | 2026-05-07 20:56 |
|---|---|
| Airport | Bordeaux–Mérignac Airport (LFBD) |
Arrival
| Time | 2026-05-07 22:25 |
|---|---|
| Airport | Manchester Airport (EGCC) |
| Time | Latitude | Longitude | Altitude | Speed | Heading |
|---|---|---|---|---|---|
| 2026-05-07 20:14 | 44.83183 | -0.70356 | 163 ft | 0 kts | 134° |
| 2026-05-07 20:47 | 44.83184 | -0.70357 | 145 ft | 2 kts | 134° |
| 2026-05-07 20:47 | 44.83200 | -0.70381 | 172 ft | 4 kts | 133° |
| 2026-05-07 20:48 | 44.83215 | -0.70404 | 172 ft | 4 kts | 144° |
| 2026-05-07 20:48 | 44.83237 | -0.70413 | 172 ft | 4 kts | 196° |
| 2026-05-07 20:48 | 44.83261 | -0.70397 | 172 ft | 4 kts | 220° |
| 2026-05-07 20:48 | 44.83271 | -0.70383 | 172 ft | 0 kts | 225° |
| 2026-05-07 20:50 | 44.83264 | -0.70394 | 172 ft | 4 kts | 225° |
| 2026-05-07 20:51 | 44.83237 | -0.70431 | 172 ft | 6 kts | 225° |
| 2026-05-07 20:51 | 44.83202 | -0.70481 | 172 ft | 9 kts | 227° |
| 2026-05-07 20:51 | 44.83203 | -0.70583 | 172 ft | 12 kts | 258° |
| 2026-05-07 20:51 | 44.83141 | -0.70689 | 172 ft | 16 kts | 223° |
| 2026-05-07 20:52 | 44.83084 | -0.70766 | 172 ft | 18 kts | 224° |
| 2026-05-07 20:52 | 44.82988 | -0.70901 | 172 ft | 20 kts | 225° |
| 2026-05-07 20:52 | 44.82970 | -0.71091 | 168 ft | 22 kts | 285° |
| 2026-05-07 20:52 | 44.83013 | -0.71294 | 170 ft | 21 kts | 288° |
| 2026-05-07 20:53 | 44.83058 | -0.71488 | 171 ft | 21 kts | 287° |
| 2026-05-07 20:53 | 44.83099 | -0.71679 | 173 ft | 20 kts | 287° |
| 2026-05-07 20:53 | 44.83139 | -0.71864 | 173 ft | 19 kts | 287° |
| 2026-05-07 20:53 | 44.83162 | -0.72044 | 173 ft | 19 kts | 247° |
| 2026-05-07 20:54 | 44.83057 | -0.72133 | 172 ft | 18 kts | 193° |
| 2026-05-07 20:54 | 44.83020 | -0.72266 | 175 ft | 18 kts | 284° |
| 2026-05-07 20:54 | 44.83054 | -0.72437 | 173 ft | 20 kts | 286° |
| 2026-05-07 20:54 | 44.83096 | -0.72642 | 171 ft | 23 kts | 286° |
| 2026-05-07 20:55 | 44.83126 | -0.72832 | 172 ft | 18 kts | 271° |
| 2026-05-07 20:55 | 44.83142 | -0.72920 | 172 ft | 4 kts | 338° |
| 2026-05-07 20:55 | 44.83148 | -0.72885 | 172 ft | 5 kts | 107° |
| 2026-05-07 20:55 | 44.83132 | -0.72811 | 172 ft | 30 kts | 107° |
| 2026-05-07 20:56 | 44.82985 | -0.72112 | 174 ft | 116 kts | 107° |
| 2026-05-07 20:56 | 44.82672 | -0.70708 | 247 ft | 178 kts | 108° |
| 2026-05-07 20:56 | 44.82302 | -0.68991 | 1174 ft | 183 kts | 104° |
| 2026-05-07 20:56 | 44.82033 | -0.67288 | 2532 ft | 174 kts | 101° |
| 2026-05-07 20:57 | 44.81811 | -0.65665 | 3851 ft | 164 kts | 108° |
| 2026-05-07 20:57 | 44.81130 | -0.64475 | 4890 ft | 160 kts | 160° |
| 2026-05-07 20:57 | 44.80027 | -0.64527 | 5580 ft | 173 kts | 210° |
| 2026-05-07 20:57 | 44.79074 | -0.65789 | 5964 ft | 204 kts | 224° |
| 2026-05-07 20:58 | 44.78154 | -0.67450 | 6292 ft | 234 kts | 250° |
| 2026-05-07 20:58 | 44.78094 | -0.69858 | 6612 ft | 266 kts | 288° |
| 2026-05-07 20:58 | 44.79009 | -0.72165 | 7447 ft | 276 kts | 310° |
| 2026-05-07 20:58 | 44.80516 | -0.73852 | 8457 ft | 281 kts | 334° |
| 2026-05-07 20:59 | 44.82417 | -0.74499 | 9470 ft | 286 kts | 0° |
| 2026-05-07 20:59 | 44.84354 | -0.73805 | 10260 ft | 295 kts | 27° |
| 2026-05-07 20:59 | 44.86124 | -0.72202 | 10729 ft | 320 kts | 43° |
| 2026-05-07 20:59 | 44.87697 | -0.69821 | 11340 ft | 334 kts | 41° |
| 2026-05-07 21:00 | 44.89614 | -0.67923 | 12182 ft | 339 kts | 26° |
| 2026-05-07 21:00 | 44.91783 | -0.66677 | 13096 ft | 343 kts | 18° |
| 2026-05-07 21:00 | 44.94064 | -0.65595 | 13986 ft | 349 kts | 16° |
| 2026-05-07 21:00 | 44.96393 | -0.64535 | 14838 ft | 354 kts | 16° |
| 2026-05-07 21:01 | 44.98750 | -0.63463 | 15745 ft | 358 kts | 16° |
| 2026-05-07 21:01 | 45.01167 | -0.62353 | 16651 ft | 363 kts | 17° |
| 2026-05-07 21:01 | 45.03582 | -0.61228 | 17516 ft | 369 kts | 17° |
| 2026-05-07 21:01 | 45.06005 | -0.60090 | 18344 ft | 375 kts | 17° |
| 2026-05-07 21:02 | 45.08496 | -0.58911 | 19093 ft | 380 kts | 17° |
| 2026-05-07 21:02 | 45.11020 | -0.57711 | 19859 ft | 385 kts | 17° |
| 2026-05-07 21:02 | 45.13580 | -0.56490 | 20620 ft | 391 kts | 17° |
| 2026-05-07 21:02 | 45.16173 | -0.55251 | 21355 ft | 396 kts | 17° |
| 2026-05-07 21:03 | 45.18800 | -0.53994 | 22106 ft | 402 kts | 17° |
| 2026-05-07 21:03 | 45.21465 | -0.52719 | 22869 ft | 406 kts | 17° |
| 2026-05-07 21:03 | 45.24162 | -0.51425 | 23599 ft | 411 kts | 17° |
| 2026-05-07 21:03 | 45.26887 | -0.50118 | 24205 ft | 415 kts | 17° |
| 2026-05-07 21:04 | 45.29638 | -0.48796 | 24827 ft | 419 kts | 17° |
| 2026-05-07 21:04 | 45.32412 | -0.47462 | 25446 ft | 423 kts | 17° |
| 2026-05-07 21:04 | 45.35214 | -0.46114 | 26049 ft | 427 kts | 17° |
| 2026-05-07 21:04 | 45.38042 | -0.44751 | 26640 ft | 431 kts | 17° |
| 2026-05-07 21:05 | 45.40896 | -0.43375 | 27240 ft | 435 kts | 17° |
| 2026-05-07 21:05 | 45.43770 | -0.41987 | 27810 ft | 438 kts | 17° |
| 2026-05-07 21:05 | 45.46672 | -0.40585 | 28362 ft | 442 kts | 17° |
| 2026-05-07 21:05 | 45.49606 | -0.39165 | 28890 ft | 446 kts | 17° |
| 2026-05-07 21:06 | 45.52557 | -0.37735 | 29416 ft | 450 kts | 17° |
| 2026-05-07 21:06 | 45.55534 | -0.36291 | 29936 ft | 454 kts | 17° |
| 2026-05-07 21:06 | 45.58540 | -0.34831 | 30377 ft | 457 kts | 17° |
| 2026-05-07 21:06 | 45.61555 | -0.33376 | 30770 ft | 460 kts | 15° |
| 2026-05-07 21:07 | 45.64680 | -0.32450 | 31213 ft | 457 kts | 2° |
| 2026-05-07 21:07 | 45.67839 | -0.32426 | 31815 ft | 451 kts | 352° |
| 2026-05-07 21:07 | 45.70896 | -0.33199 | 32381 ft | 444 kts | 341° |
| 2026-05-07 21:07 | 45.73848 | -0.34494 | 32871 ft | 443 kts | 339° |
| 2026-05-07 21:08 | 45.76784 | -0.35871 | 33284 ft | 444 kts | 339° |
| 2026-05-07 21:08 | 45.79691 | -0.37254 | 33709 ft | 445 kts | 339° |
| 2026-05-07 21:08 | 45.82645 | -0.38648 | 34124 ft | 446 kts | 339° |
| 2026-05-07 21:08 | 45.85588 | -0.40017 | 34534 ft | 444 kts | 339° |
| 2026-05-07 21:09 | 45.88527 | -0.41367 | 34962 ft | 443 kts | 339° |
| 2026-05-07 21:09 | 45.91459 | -0.42705 | 35342 ft | 442 kts | 339° |
| 2026-05-07 21:09 | 45.94391 | -0.44039 | 35701 ft | 442 kts | 339° |
| 2026-05-07 21:09 | 45.97327 | -0.45373 | 36079 ft | 441 kts | 339° |
| 2026-05-07 21:10 | 46.00252 | -0.46704 | 36427 ft | 441 kts | 339° |
| 2026-05-07 21:10 | 46.03184 | -0.48040 | 36772 ft | 441 kts | 339° |
| 2026-05-07 21:10 | 46.06094 | -0.49367 | 37138 ft | 440 kts | 339° |
| 2026-05-07 21:10 | 46.09007 | -0.50698 | 37505 ft | 439 kts | 339° |
| 2026-05-07 21:11 | 46.11918 | -0.52029 | 37840 ft | 438 kts | 339° |
| 2026-05-07 21:11 | 46.14829 | -0.53364 | 37976 ft | 442 kts | 339° |
| 2026-05-07 21:11 | 46.20728 | -0.56072 | 37971 ft | 442 kts | 339° |
| 2026-05-07 21:12 | 46.26531 | -0.58737 | 37965 ft | 435 kts | 339° |
| 2026-05-07 21:12 | 46.32307 | -0.61401 | 37979 ft | 436 kts | 339° |
| 2026-05-07 21:13 | 46.38088 | -0.64071 | 37992 ft | 436 kts | 339° |
| 2026-05-07 21:13 | 46.43814 | -0.66847 | 37972 ft | 435 kts | 333° |
| 2026-05-07 21:14 | 46.49230 | -0.70711 | 37979 ft | 434 kts | 329° |
| 2026-05-07 21:14 | 46.54585 | -0.74757 | 37979 ft | 434 kts | 329° |
| 2026-05-07 21:15 | 46.59972 | -0.78765 | 37988 ft | 435 kts | 330° |
| 2026-05-07 21:15 | 46.65379 | -0.82743 | 37993 ft | 435 kts | 330° |
| 2026-05-07 21:16 | 46.70783 | -0.86716 | 37983 ft | 435 kts | 330° |
| 2026-05-07 21:16 | 46.76191 | -0.90701 | 37981 ft | 435 kts | 330° |
| 2026-05-07 21:17 | 46.81555 | -0.94665 | 37980 ft | 434 kts | 330° |
| 2026-05-07 21:17 | 46.86944 | -0.98657 | 37978 ft | 433 kts | 330° |
| 2026-05-07 21:18 | 46.92334 | -1.02578 | 37968 ft | 434 kts | 335° |
| 2026-05-07 21:18 | 46.98226 | -1.04666 | 37991 ft | 439 kts | 351° |
| 2026-05-07 21:19 | 47.04312 | -1.05425 | 37978 ft | 439 kts | 353° |
| 2026-05-07 21:19 | 47.10403 | -1.06141 | 37978 ft | 438 kts | 352° |
| 2026-05-07 21:20 | 47.16483 | -1.06927 | 37983 ft | 438 kts | 352° |
| 2026-05-07 21:20 | 47.22559 | -1.07749 | 37988 ft | 438 kts | 352° |
| 2026-05-07 21:21 | 47.28627 | -1.08576 | 37985 ft | 438 kts | 352° |
| 2026-05-07 21:21 | 47.34698 | -1.09403 | 37987 ft | 438 kts | 352° |
| 2026-05-07 21:22 | 47.40731 | -1.10226 | 37998 ft | 438 kts | 352° |
| 2026-05-07 21:22 | 47.46809 | -1.11057 | 37990 ft | 438 kts | 352° |
| 2026-05-07 21:23 | 47.52890 | -1.11891 | 37992 ft | 439 kts | 352° |
| 2026-05-07 21:23 | 47.58973 | -1.12734 | 38004 ft | 439 kts | 352° |
| 2026-05-07 21:24 | 47.65057 | -1.13583 | 38001 ft | 439 kts | 352° |
| 2026-05-07 21:24 | 47.71143 | -1.14434 | 37996 ft | 439 kts | 352° |
| 2026-05-07 21:25 | 47.77190 | -1.15280 | 38000 ft | 439 kts | 352° |
| 2026-05-07 21:25 | 47.83318 | -1.16139 | 38008 ft | 439 kts | 352° |
| 2026-05-07 21:26 | 47.89371 | -1.16990 | 38008 ft | 439 kts | 352° |
| 2026-05-07 21:26 | 47.95442 | -1.17845 | 38006 ft | 439 kts | 352° |
| 2026-05-07 21:27 | 48.01526 | -1.18705 | 38026 ft | 439 kts | 352° |
| 2026-05-07 21:27 | 48.07605 | -1.19565 | 38005 ft | 439 kts | 352° |
| 2026-05-07 21:28 | 48.13685 | -1.20428 | 38016 ft | 438 kts | 352° |
| 2026-05-07 21:28 | 48.19758 | -1.21292 | 38008 ft | 438 kts | 352° |
| 2026-05-07 21:29 | 48.25825 | -1.22157 | 38017 ft | 438 kts | 352° |
| 2026-05-07 21:29 | 48.31897 | -1.23025 | 38009 ft | 438 kts | 352° |
| 2026-05-07 21:30 | 48.37958 | -1.23893 | 38014 ft | 437 kts | 352° |
| 2026-05-07 21:30 | 48.44025 | -1.24765 | 38020 ft | 437 kts | 352° |
| 2026-05-07 21:31 | 48.50089 | -1.25638 | 38016 ft | 437 kts | 352° |
| 2026-05-07 21:31 | 48.56153 | -1.26513 | 38018 ft | 438 kts | 352° |
| 2026-05-07 21:32 | 48.62214 | -1.27390 | 38021 ft | 437 kts | 352° |
| 2026-05-07 21:32 | 48.68275 | -1.28269 | 38024 ft | 438 kts | 352° |
| 2026-05-07 21:33 | 48.74345 | -1.29151 | 38026 ft | 438 kts | 352° |
| 2026-05-07 21:33 | 48.80419 | -1.30036 | 38026 ft | 439 kts | 352° |
| 2026-05-07 21:34 | 48.86464 | -1.30919 | 38024 ft | 439 kts | 352° |
| 2026-05-07 21:34 | 48.92547 | -1.31810 | 38036 ft | 439 kts | 352° |
| 2026-05-07 21:35 | 48.98635 | -1.32703 | 38027 ft | 439 kts | 352° |
| 2026-05-07 21:35 | 49.03737 | -1.33454 | 38027 ft | 439 kts | 352° |
| 2026-05-07 21:36 | 49.09784 | -1.34345 | 38040 ft | 439 kts | 352° |
| 2026-05-07 21:36 | 49.15875 | -1.35246 | 38029 ft | 439 kts | 352° |
| 2026-05-07 21:37 | 49.21958 | -1.36147 | 38033 ft | 439 kts | 352° |
| 2026-05-07 21:37 | 49.28032 | -1.37049 | 38032 ft | 438 kts | 352° |
| 2026-05-07 21:38 | 49.34104 | -1.37953 | 38038 ft | 438 kts | 352° |
| 2026-05-07 21:38 | 49.40172 | -1.38859 | 38036 ft | 438 kts | 352° |
| 2026-05-07 21:39 | 49.46235 | -1.39766 | 38046 ft | 438 kts | 352° |
| 2026-05-07 21:39 | 49.52298 | -1.40676 | 38061 ft | 437 kts | 352° |
| 2026-05-07 21:40 | 49.58354 | -1.41581 | 38051 ft | 438 kts | 353° |
| 2026-05-07 21:40 | 49.64466 | -1.41445 | 38051 ft | 440 kts | 1° |
| 2026-05-07 21:41 | 49.70575 | -1.40758 | 38050 ft | 440 kts | 2° |
| 2026-05-07 21:41 | 49.76676 | -1.40124 | 38054 ft | 439 kts | 1° |
| 2026-05-07 21:42 | 49.82775 | -1.39560 | 38046 ft | 439 kts | 1° |
| 2026-05-07 21:42 | 49.88874 | -1.39012 | 38048 ft | 439 kts | 1° |
| 2026-05-07 21:43 | 49.94965 | -1.38460 | 38050 ft | 439 kts | 1° |
| 2026-05-07 21:43 | 50.01049 | -1.37840 | 38049 ft | 440 kts | 4° |
| 2026-05-07 21:44 | 50.07073 | -1.36444 | 38046 ft | 440 kts | 7° |
| 2026-05-07 21:44 | 50.13112 | -1.34828 | 38050 ft | 440 kts | 7° |
| 2026-05-07 21:45 | 50.19193 | -1.33264 | 38056 ft | 440 kts | 7° |
| 2026-05-07 21:45 | 50.25203 | -1.31766 | 38052 ft | 440 kts | 7° |
| 2026-05-07 21:46 | 50.31259 | -1.30263 | 38052 ft | 440 kts | 7° |
| 2026-05-07 21:46 | 50.37315 | -1.28754 | 38055 ft | 440 kts | 7° |
| 2026-05-07 21:47 | 50.43371 | -1.27239 | 38062 ft | 441 kts | 7° |
| 2026-05-07 21:47 | 50.49402 | -1.25403 | 38032 ft | 443 kts | 16° |
| 2026-05-07 21:48 | 50.54935 | -1.21164 | 38067 ft | 445 kts | 31° |
| 2026-05-07 21:48 | 50.60135 | -1.15853 | 38054 ft | 446 kts | 32° |
| 2026-05-07 21:49 | 50.65342 | -1.10536 | 38079 ft | 446 kts | 31° |
| 2026-05-07 21:49 | 50.70527 | -1.05328 | 38058 ft | 446 kts | 31° |
| 2026-05-07 21:50 | 50.75741 | -1.00103 | 38063 ft | 447 kts | 31° |
| 2026-05-07 21:50 | 50.80998 | -0.94853 | 38069 ft | 446 kts | 28° |
| 2026-05-07 21:51 | 50.86705 | -0.91150 | 38085 ft | 443 kts | 16° |
| 2026-05-07 21:51 | 50.92592 | -0.88214 | 38080 ft | 444 kts | 15° |
| 2026-05-07 21:52 | 50.98484 | -0.85260 | 38064 ft | 444 kts | 16° |
| 2026-05-07 21:52 | 51.04371 | -0.82235 | 38071 ft | 444 kts | 16° |
| 2026-05-07 21:53 | 51.10247 | -0.79179 | 38082 ft | 444 kts | 17° |
| 2026-05-07 21:53 | 51.16122 | -0.76109 | 38073 ft | 444 kts | 17° |
| 2026-05-07 21:54 | 51.21994 | -0.73034 | 38081 ft | 444 kts | 17° |
| 2026-05-07 21:54 | 51.27870 | -0.69950 | 38082 ft | 444 kts | 17° |
| 2026-05-07 21:55 | 51.33748 | -0.66858 | 38103 ft | 444 kts | 17° |
| 2026-05-07 21:55 | 51.39611 | -0.63765 | 38095 ft | 444 kts | 17° |
| 2026-05-07 21:56 | 51.45474 | -0.60663 | 38100 ft | 444 kts | 17° |
| 2026-05-07 21:56 | 51.51311 | -0.57566 | 38110 ft | 443 kts | 17° |
| 2026-05-07 21:57 | 51.57177 | -0.54446 | 38075 ft | 443 kts | 17° |
| 2026-05-07 21:57 | 51.63040 | -0.51319 | 38075 ft | 443 kts | 17° |
| 2026-05-07 21:58 | 51.68892 | -0.48189 | 38074 ft | 443 kts | 17° |
| 2026-05-07 21:58 | 51.74701 | -0.45074 | 38082 ft | 443 kts | 17° |
| 2026-05-07 21:59 | 51.77660 | -0.43647 | 37642 ft | 444 kts | 6° |
| 2026-05-07 21:59 | 51.80701 | -0.43535 | 37260 ft | 433 kts | 349° |
| 2026-05-07 21:59 | 51.83591 | -0.44744 | 36689 ft | 426 kts | 333° |
| 2026-05-07 21:59 | 51.86149 | -0.47022 | 36167 ft | 421 kts | 325° |
| 2026-05-07 22:00 | 51.88617 | -0.49580 | 35702 ft | 417 kts | 324° |
| 2026-05-07 22:00 | 51.91058 | -0.52086 | 35263 ft | 414 kts | 325° |
| 2026-05-07 22:00 | 51.93498 | -0.54521 | 34827 ft | 411 kts | 325° |
| 2026-05-07 22:00 | 51.95939 | -0.56913 | 34403 ft | 408 kts | 326° |
| 2026-05-07 22:01 | 51.98364 | -0.59272 | 33964 ft | 405 kts | 326° |
| 2026-05-07 22:01 | 52.00770 | -0.61612 | 33472 ft | 402 kts | 326° |
| 2026-05-07 22:01 | 52.03166 | -0.63948 | 33028 ft | 398 kts | 326° |
| 2026-05-07 22:01 | 52.05527 | -0.66257 | 32616 ft | 394 kts | 326° |
| 2026-05-07 22:02 | 52.07866 | -0.68549 | 32196 ft | 391 kts | 326° |
| 2026-05-07 22:02 | 52.10181 | -0.70821 | 31795 ft | 387 kts | 326° |
| 2026-05-07 22:02 | 52.12476 | -0.73075 | 31384 ft | 384 kts | 326° |
| 2026-05-07 22:02 | 52.14753 | -0.75321 | 30988 ft | 381 kts | 326° |
| 2026-05-07 22:03 | 52.17012 | -0.77560 | 30601 ft | 378 kts | 325° |
| 2026-05-07 22:03 | 52.19251 | -0.79781 | 30212 ft | 376 kts | 326° |
| 2026-05-07 22:03 | 52.21476 | -0.81990 | 29776 ft | 373 kts | 326° |
| 2026-05-07 22:03 | 52.23680 | -0.84180 | 29352 ft | 369 kts | 326° |
| 2026-05-07 22:04 | 52.25856 | -0.86342 | 28941 ft | 364 kts | 326° |
| 2026-05-07 22:04 | 52.27988 | -0.88454 | 28529 ft | 361 kts | 326° |
| 2026-05-07 22:04 | 52.30124 | -0.90571 | 28121 ft | 357 kts | 325° |
| 2026-05-07 22:04 | 52.32237 | -0.92666 | 27716 ft | 354 kts | 325° |
| 2026-05-07 22:05 | 52.34335 | -0.94752 | 27304 ft | 351 kts | 325° |
| 2026-05-07 22:05 | 52.36414 | -0.96820 | 26912 ft | 348 kts | 325° |
| 2026-05-07 22:05 | 52.38428 | -0.98827 | 26506 ft | 345 kts | 325° |
| 2026-05-07 22:05 | 52.40474 | -1.00869 | 26108 ft | 343 kts | 325° |
| 2026-05-07 22:06 | 52.42509 | -1.02901 | 25710 ft | 341 kts | 325° |
| 2026-05-07 22:06 | 52.44528 | -1.04918 | 25295 ft | 339 kts | 325° |
| 2026-05-07 22:06 | 52.46539 | -1.06930 | 24901 ft | 337 kts | 325° |
| 2026-05-07 22:06 | 52.48533 | -1.08928 | 24504 ft | 335 kts | 325° |
| 2026-05-07 22:07 | 52.50517 | -1.10929 | 24112 ft | 333 kts | 325° |
| 2026-05-07 22:07 | 52.52483 | -1.12923 | 23728 ft | 332 kts | 325° |
| 2026-05-07 22:07 | 52.54444 | -1.14915 | 23288 ft | 331 kts | 325° |
| 2026-05-07 22:07 | 52.56378 | -1.16879 | 22833 ft | 329 kts | 325° |
| 2026-05-07 22:08 | 52.58318 | -1.18843 | 22430 ft | 326 kts | 325° |
| 2026-05-07 22:08 | 52.60240 | -1.20788 | 22012 ft | 324 kts | 325° |
| 2026-05-07 22:08 | 52.62150 | -1.22722 | 21622 ft | 321 kts | 325° |
| 2026-05-07 22:08 | 52.64052 | -1.24650 | 21219 ft | 319 kts | 325° |
| 2026-05-07 22:09 | 52.65933 | -1.26560 | 20819 ft | 317 kts | 325° |
| 2026-05-07 22:09 | 52.67804 | -1.28461 | 20438 ft | 315 kts | 325° |
| 2026-05-07 22:09 | 52.69667 | -1.30356 | 20060 ft | 314 kts | 325° |
| 2026-05-07 22:09 | 52.71524 | -1.32245 | 19689 ft | 315 kts | 326° |
| 2026-05-07 22:10 | 52.73408 | -1.34163 | 19328 ft | 321 kts | 326° |
| 2026-05-07 22:10 | 52.75323 | -1.36113 | 19012 ft | 327 kts | 326° |
| 2026-05-07 22:10 | 52.77275 | -1.38103 | 18626 ft | 332 kts | 326° |
| 2026-05-07 22:10 | 52.79243 | -1.40110 | 18209 ft | 332 kts | 326° |
| 2026-05-07 22:11 | 52.81203 | -1.42110 | 17767 ft | 329 kts | 326° |
| 2026-05-07 22:11 | 52.83140 | -1.44088 | 17360 ft | 325 kts | 326° |
| 2026-05-07 22:11 | 52.85058 | -1.46049 | 16964 ft | 322 kts | 326° |
| 2026-05-07 22:11 | 52.86945 | -1.47982 | 16587 ft | 318 kts | 326° |
| 2026-05-07 22:12 | 52.88815 | -1.49899 | 16215 ft | 314 kts | 326° |
| 2026-05-07 22:12 | 52.90663 | -1.51796 | 15856 ft | 311 kts | 326° |
| 2026-05-07 22:12 | 52.92497 | -1.53682 | 15491 ft | 309 kts | 326° |
| 2026-05-07 22:12 | 52.94314 | -1.55552 | 15131 ft | 306 kts | 326° |
| 2026-05-07 22:13 | 52.96117 | -1.57409 | 14774 ft | 304 kts | 326° |
| 2026-05-07 22:13 | 52.97912 | -1.59260 | 14417 ft | 303 kts | 326° |
| 2026-05-07 22:13 | 52.99699 | -1.61104 | 14067 ft | 302 kts | 326° |
| 2026-05-07 22:13 | 53.01484 | -1.62947 | 13690 ft | 302 kts | 326° |
| 2026-05-07 22:14 | 53.03264 | -1.64788 | 13301 ft | 301 kts | 326° |
| 2026-05-07 22:14 | 53.05038 | -1.66636 | 12927 ft | 299 kts | 323° |
| 2026-05-07 22:14 | 53.06558 | -1.68936 | 12579 ft | 293 kts | 308° |
| 2026-05-07 22:14 | 53.07855 | -1.71520 | 12237 ft | 290 kts | 306° |
| 2026-05-07 22:15 | 53.09133 | -1.74106 | 11888 ft | 288 kts | 307° |
| 2026-05-07 22:15 | 53.10404 | -1.76629 | 11552 ft | 286 kts | 307° |
| 2026-05-07 22:15 | 53.11685 | -1.79153 | 11218 ft | 284 kts | 307° |
| 2026-05-07 22:15 | 53.12965 | -1.81650 | 10880 ft | 283 kts | 308° |
| 2026-05-07 22:16 | 53.14242 | -1.84135 | 10549 ft | 281 kts | 308° |
| 2026-05-07 22:16 | 53.15506 | -1.86595 | 10221 ft | 278 kts | 308° |
| 2026-05-07 22:16 | 53.16352 | -1.88242 | 9996 ft | 276 kts | 308° |
| 2026-05-07 22:16 | 53.17593 | -1.90660 | 9643 ft | 273 kts | 308° |
| 2026-05-07 22:17 | 53.19388 | -1.93522 | 9179 ft | 272 kts | 329° |
| 2026-05-07 22:17 | 53.21205 | -1.94348 | 8910 ft | 274 kts | 355° |
| 2026-05-07 22:17 | 53.22499 | -1.94375 | 8662 ft | 277 kts | 359° |
| 2026-05-07 22:17 | 53.24441 | -1.94291 | 8342 ft | 275 kts | 360° |
| 2026-05-07 22:18 | 53.26353 | -1.94174 | 8091 ft | 275 kts | 360° |
| 2026-05-07 22:18 | 53.30217 | -1.93929 | 7245 ft | 284 kts | 0° |
| 2026-05-07 22:18 | 53.32156 | -1.93802 | 7034 ft | 276 kts | 0° |
| 2026-05-07 22:19 | 53.34056 | -1.93678 | 6782 ft | 270 kts | 0° |
| 2026-05-07 22:19 | 53.35928 | -1.93560 | 6531 ft | 269 kts | 0° |
| 2026-05-07 22:19 | 53.37805 | -1.93446 | 6238 ft | 268 kts | 0° |
| 2026-05-07 22:19 | 53.39653 | -1.93516 | 5941 ft | 263 kts | 345° |
| 2026-05-07 22:20 | 53.41231 | -1.94738 | 5820 ft | 241 kts | 323° |
| 2026-05-07 22:20 | 53.42553 | -1.96303 | 5661 ft | 226 kts | 320° |
| 2026-05-07 22:20 | 53.43817 | -1.97855 | 5202 ft | 226 kts | 320° |
| 2026-05-07 22:20 | 53.45087 | -1.99433 | 4752 ft | 228 kts | 320° |
| 2026-05-07 22:21 | 53.46150 | -2.01359 | 4155 ft | 226 kts | 288° |
| 2026-05-07 22:21 | 53.46245 | -2.03874 | 3626 ft | 215 kts | 246° |
| 2026-05-07 22:21 | 53.45511 | -2.05904 | 3172 ft | 206 kts | 232° |
| 2026-05-07 22:21 | 53.44783 | -2.07850 | 3014 ft | 192 kts | 237° |
| 2026-05-07 22:22 | 53.44056 | -2.09646 | 2791 ft | 187 kts | 230° |
| 2026-05-07 22:22 | 53.43231 | -2.11361 | 2541 ft | 187 kts | 229° |
| 2026-05-07 22:22 | 53.42419 | -2.13019 | 2288 ft | 186 kts | 228° |
| 2026-05-07 22:22 | 53.41600 | -2.14698 | 2038 ft | 185 kts | 228° |
| 2026-05-07 22:23 | 53.40815 | -2.16313 | 1786 ft | 170 kts | 228° |
| 2026-05-07 22:23 | 53.40109 | -2.17767 | 1553 ft | 152 kts | 227° |
| 2026-05-07 22:23 | 53.39470 | -2.19080 | 1342 ft | 140 kts | 227° |
| 2026-05-07 22:23 | 53.38880 | -2.20293 | 1194 ft | 129 kts | 227° |
| 2026-05-07 22:24 | 53.38318 | -2.21441 | 1004 ft | 125 kts | 226° |
| 2026-05-07 22:24 | 53.37745 | -2.22602 | 784 ft | 135 kts | 227° |
| 2026-05-07 22:24 | 53.37178 | -2.23808 | 636 ft | 130 kts | 230° |
| 2026-05-07 22:24 | 53.36586 | -2.24987 | 423 ft | 131 kts | 228° |
| 2026-05-07 22:25 | 53.35990 | -2.26212 | 267 ft | 134 kts | 232° |
| 2026-05-07 22:25 | 53.35502 | -2.27232 | 248 ft | 83 kts | 232° |
| 2026-05-07 22:25 | 53.35342 | -2.27565 | 242 ft | 22 kts | 233° |
| 2026-05-07 22:25 | 53.35308 | -2.27789 | 240 ft | 15 kts | 300° |
| 2026-05-07 22:26 | 53.35362 | -2.27912 | 237 ft | 11 kts | 328° |
| 2026-05-07 22:26 | 53.35424 | -2.27954 | 236 ft | 6 kts | 350° |
| 2026-05-07 22:26 | 53.35425 | -2.27954 | 236 ft | 0 kts | 351° |
| 2026-05-07 22:26 | 53.35426 | -2.27954 | 236 ft | 2 kts | 354° |
| 2026-05-07 22:27 | 53.35523 | -2.27921 | 237 ft | 18 kts | 11° |
| 2026-05-07 22:27 | 53.35650 | -2.27888 | 241 ft | 18 kts | 7° |
| 2026-05-07 22:27 | 53.35772 | -2.27869 | 247 ft | 18 kts | 5° |
| 2026-05-07 22:27 | 53.35892 | -2.27851 | 254 ft | 17 kts | 5° |
| 2026-05-07 22:28 | 53.35998 | -2.27903 | 254 ft | 16 kts | 315° |
| 2026-05-07 22:28 | 53.36080 | -2.28032 | 254 ft | 16 kts | 317° |
| 2026-05-07 22:28 | 53.36163 | -2.28147 | 254 ft | 15 kts | 338° |
| 2026-05-07 22:28 | 53.36255 | -2.28091 | 254 ft | 15 kts | 29° |
| 2026-05-07 22:29 | 53.36343 | -2.28016 | 254 ft | 14 kts | 34° |
| 2026-05-07 22:29 | 53.36389 | -2.27895 | 254 ft | 13 kts | 95° |
| 2026-05-07 22:29 | 53.36404 | -2.27786 | 254 ft | 10 kts | 37° |
| 2026-05-07 22:29 | 53.36426 | -2.27760 | 254 ft | 0 kts | 43° |
| 2026-05-07 22:30 | 53.36433 | -2.27749 | 254 ft | 2 kts | 44° |
| 2026-05-07 22:30 | 53.36442 | -2.27732 | 254 ft | 0 kts | 45° |